sensor_id;sensor_type;location;lat;lon;timestamp;temperature;humidity
24384;DHT22;12504;52.870;8.798;2022-11-13T00:00:06;4.90;99.90
24384;DHT22;12504;52.870;8.798;2022-11-13T00:02:51;4.90;99.90
24384;DHT22;12504;52.870;8.798;2022-11-13T00:05:35;4.90;99.90
24384;DHT22;12504;52.870;8.798;2022-11-13T00:08:19;4.90;99.90
24384;DHT22;12504;52.870;8.798;2022-11-13T00:11:09;4.80;99.90
24384;DHT22;12504;52.870;8.798;2022-11-13T00:13:54;4.80;99.90
24384;DHT22;12504;52.870;8.798;2022-11-13T00:16:38;4.80;99.90
24384;DHT22;12504;52.870;8.798;2022-11-13T00:19:22;4.80;99.90
24384;DHT22;12504;52.870;8.798;2022-11-13T00:22:07;4.80;99.90
24384;DHT22;12504;52.870;8.798;2022-11-13T00:24:51;4.80;99.90
24384;DHT22;12504;52.870;8.798;2022-11-13T00:27:35;4.70;99.90
24384;DHT22;12504;52.870;8.798;2022-11-13T00:30:20;4.70;99.90
24384;DHT22;12504;52.870;8.798;2022-11-13T00:33:04;4.60;99.90
24384;DHT22;12504;52.870;8.798;2022-11-13T00:35:48;4.60;99.90
24384;DHT22;12504;52.870;8.798;2022-11-13T00:38:33;4.50;99.90
24384;DHT22;12504;52.870;8.798;2022-11-13T00:41:17;4.50;99.90
24384;DHT22;12504;52.870;8.798;2022-11-13T00:44:02;4.60;99.90
24384;DHT22;12504;52.870;8.798;2022-11-13T00:46:46;4.60;99.90
24384;DHT22;12504;52.870;8.798;2022-11-13T00:49:31;4.60;99.90
24384;DHT22;12504;52.870;8.798;2022-11-13T00:52:15;4.60;99.90
24384;DHT22;12504;52.870;8.798;2022-11-13T00:54:59;4.60;99.90
24384;DHT22;12504;52.870;8.798;2022-11-13T00:57:43;4.50;99.90
24384;DHT22;12504;52.870;8.798;2022-11-13T01:00:28;4.50;99.90
24384;DHT22;12504;52.870;8.798;2022-11-13T01:03:12;4.40;99.90
24384;DHT22;12504;52.870;8.798;2022-11-13T01:05:57;4.30;99.90
24384;DHT22;12504;52.870;8.798;2022-11-13T01:08:41;4.20;99.90
24384;DHT22;12504;52.870;8.798;2022-11-13T01:11:26;4.10;99.90
24384;DHT22;12504;52.870;8.798;2022-11-13T01:14:11;4.10;99.90
24384;DHT22;12504;52.870;8.798;2022-11-13T01:16:55;4.10;99.90
24384;DHT22;12504;52.870;8.798;2022-11-13T01:19:39;4.10;99.90
24384;DHT22;12504;52.870;8.798;2022-11-13T01:22:23;4.10;99.90
24384;DHT22;12504;52.870;8.798;2022-11-13T01:25:08;4.10;99.90
24384;DHT22;12504;52.870;8.798;2022-11-13T01:27:52;4.10;99.90
24384;DHT22;12504;52.870;8.798;2022-11-13T01:30:37;4.20;99.90
24384;DHT22;12504;52.870;8.798;2022-11-13T01:33:21;4.20;99.90
24384;DHT22;12504;52.870;8.798;2022-11-13T01:36:07;4.20;99.90
24384;DHT22;12504;52.870;8.798;2022-11-13T01:38:52;4.10;99.90
24384;DHT22;12504;52.870;8.798;2022-11-13T01:41:37;4.20;99.90
24384;DHT22;12504;52.870;8.798;2022-11-13T01:44:21;4.20;99.90
24384;DHT22;12504;52.870;8.798;2022-11-13T01:49:59;4.20;99.90
24384;DHT22;12504;52.870;8.798;2022-11-13T01:52:44;4.30;99.90
24384;DHT22;12504;52.870;8.798;2022-11-13T01:55:13;4.30;99.90
24384;DHT22;12504;52.870;8.798;2022-11-13T01:57:59;4.30;99.90
24384;DHT22;12504;52.870;8.798;2022-11-13T02:00:43;4.30;99.90
24384;DHT22;12504;52.870;8.798;2022-11-13T02:03:28;4.30;99.90
24384;DHT22;12504;52.870;8.798;2022-11-13T02:06:14;4.30;99.90
24384;DHT22;12504;52.870;8.798;2022-11-13T02:08:58;4.30;99.90
24384;DHT22;12504;52.870;8.798;2022-11-13T02:11:42;4.30;99.90
24384;DHT22;12504;52.870;8.798;2022-11-13T02:14:28;4.30;99.90
24384;DHT22;12504;52.870;8.798;2022-11-13T02:17:14;4.20;99.90
24384;DHT22;12504;52.870;8.798;2022-11-13T02:20:00;4.20;99.90
24384;DHT22;12504;52.870;8.798;2022-11-13T02:25:29;4.20;99.90
24384;DHT22;12504;52.870;8.798;2022-11-13T02:28:14;4.20;99.90
24384;DHT22;12504;52.870;8.798;2022-11-13T02:31:08;4.10;99.90
24384;DHT22;12504;52.870;8.798;2022-11-13T02:33:53;4.00;99.90
24384;DHT22;12504;52.870;8.798;2022-11-13T02:36:37;3.90;99.90
24384;DHT22;12504;52.870;8.798;2022-11-13T02:39:22;3.80;99.90
24384;DHT22;12504;52.870;8.798;2022-11-13T02:42:06;3.70;99.90
24384;DHT22;12504;52.870;8.798;2022-11-13T02:44:50;3.80;99.90
24384;DHT22;12504;52.870;8.798;2022-11-13T02:47:35;3.80;99.90
24384;DHT22;12504;52.870;8.798;2022-11-13T02:50:19;3.80;99.90
24384;DHT22;12504;52.870;8.798;2022-11-13T02:53:03;3.80;99.90
24384;DHT22;12504;52.870;8.798;2022-11-13T02:55:48;3.70;99.90
24384;DHT22;12504;52.870;8.798;2022-11-13T02:58:32;3.70;99.90
24384;DHT22;12504;52.870;8.798;2022-11-13T03:01:16;3.70;99.90
24384;DHT22;12504;52.870;8.798;2022-11-13T03:04:01;3.70;99.90
24384;DHT22;12504;52.870;8.798;2022-11-13T03:06:45;3.70;99.90
24384;DHT22;12504;52.870;8.798;2022-11-13T03:09:29;3.80;99.90
24384;DHT22;12504;52.870;8.798;2022-11-13T03:12:14;3.80;99.90
24384;DHT22;12504;52.870;8.798;2022-11-13T03:14:58;3.90;99.90
24384;DHT22;12504;52.870;8.798;2022-11-13T03:17:42;3.80;99.90
24384;DHT22;12504;52.870;8.798;2022-11-13T03:20:26;3.90;99.90
24384;DHT22;12504;52.870;8.798;2022-11-13T03:23:11;3.90;99.90
24384;DHT22;12504;52.870;8.798;2022-11-13T03:25:55;3.80;99.90
24384;DHT22;12504;52.870;8.798;2022-11-13T03:28:39;3.90;99.90
24384;DHT22;12504;52.870;8.798;2022-11-13T03:31:23;3.90;99.90
24384;DHT22;12504;52.870;8.798;2022-11-13T03:34:08;3.80;99.90
24384;DHT22;12504;52.870;8.798;2022-11-13T03:36:52;3.80;99.90
24384;DHT22;12504;52.870;8.798;2022-11-13T03:39:36;3.80;99.90
24384;DHT22;12504;52.870;8.798;2022-11-13T03:42:20;3.70;99.90
24384;DHT22;12504;52.870;8.798;2022-11-13T03:45:05;3.70;99.90
24384;DHT22;12504;52.870;8.798;2022-11-13T03:47:49;3.70;99.90
24384;DHT22;12504;52.870;8.798;2022-11-13T03:50:33;3.80;99.90
24384;DHT22;12504;52.870;8.798;2022-11-13T03:53:17;3.80;99.90
24384;DHT22;12504;52.870;8.798;2022-11-13T03:56:02;3.70;99.90
24384;DHT22;12504;52.870;8.798;2022-11-13T03:58:46;3.70;99.90
24384;DHT22;12504;52.870;8.798;2022-11-13T04:01:30;3.80;99.90
24384;DHT22;12504;52.870;8.798;2022-11-13T04:04:15;3.70;99.90
24384;DHT22;12504;52.870;8.798;2022-11-13T04:06:59;3.80;99.90
24384;DHT22;12504;52.870;8.798;2022-11-13T04:09:43;3.70;99.90
24384;DHT22;12504;52.870;8.798;2022-11-13T04:12:27;3.80;99.90
24384;DHT22;12504;52.870;8.798;2022-11-13T04:15:12;3.80;99.90
24384;DHT22;12504;52.870;8.798;2022-11-13T04:17:56;3.80;99.90
24384;DHT22;12504;52.870;8.798;2022-11-13T04:20:40;3.80;99.90
24384;DHT22;12504;52.870;8.798;2022-11-13T04:23:24;3.90;99.90
24384;DHT22;12504;52.870;8.798;2022-11-13T04:26:09;3.90;99.90
24384;DHT22;12504;52.870;8.798;2022-11-13T04:28:53;3.90;99.90
24384;DHT22;12504;52.870;8.798;2022-11-13T04:31:37;3.90;99.90
24384;DHT22;12504;52.870;8.798;2022-11-13T04:34:22;3.90;99.90
24384;DHT22;12504;52.870;8.798;2022-11-13T04:37:06;3.90;99.90
24384;DHT22;12504;52.870;8.798;2022-11-13T04:39:50;3.90;99.90
24384;DHT22;12504;52.870;8.798;2022-11-13T04:42:34;3.90;99.90
24384;DHT22;12504;52.870;8.798;2022-11-13T04:45:34;3.90;99.90
24384;DHT22;12504;52.870;8.798;2022-11-13T04:48:18;3.90;99.90
24384;DHT22;12504;52.870;8.798;2022-11-13T04:51:02;3.80;99.90
24384;DHT22;12504;52.870;8.798;2022-11-13T04:53:46;3.80;99.90
24384;DHT22;12504;52.870;8.798;2022-11-13T04:56:31;3.80;99.90
24384;DHT22;12504;52.870;8.798;2022-11-13T04:59:15;3.80;99.90
24384;DHT22;12504;52.870;8.798;2022-11-13T05:01:59;3.70;99.90
24384;DHT22;12504;52.870;8.798;2022-11-13T05:04:44;3.70;99.90
24384;DHT22;12504;52.870;8.798;2022-11-13T05:07:28;3.60;99.90
24384;DHT22;12504;52.870;8.798;2022-11-13T05:10:12;3.60;99.90
24384;DHT22;12504;52.870;8.798;2022-11-13T05:12:56;3.60;99.90
24384;DHT22;12504;52.870;8.798;2022-11-13T05:15:40;3.60;99.90
24384;DHT22;12504;52.870;8.798;2022-11-13T05:18:25;3.60;99.90
24384;DHT22;12504;52.870;8.798;2022-11-13T05:21:09;3.60;99.90
24384;DHT22;12504;52.870;8.798;2022-11-13T05:23:53;3.60;99.90
24384;DHT22;12504;52.870;8.798;2022-11-13T05:26:38;3.60;99.90
24384;DHT22;12504;52.870;8.798;2022-11-13T05:29:22;3.70;99.90
24384;DHT22;12504;52.870;8.798;2022-11-13T05:32:06;3.70;99.90
24384;DHT22;12504;52.870;8.798;2022-11-13T05:34:51;3.60;99.90
24384;DHT22;12504;52.870;8.798;2022-11-13T05:37:35;3.70;99.90
24384;DHT22;12504;52.870;8.798;2022-11-13T05:40:19;3.60;99.90
24384;DHT22;12504;52.870;8.798;2022-11-13T05:43:03;3.60;99.90
24384;DHT22;12504;52.870;8.798;2022-11-13T05:45:48;3.50;99.90
24384;DHT22;12504;52.870;8.798;2022-11-13T05:48:32;3.30;99.90
24384;DHT22;12504;52.870;8.798;2022-11-13T05:51:18;3.30;99.90
24384;DHT22;12504;52.870;8.798;2022-11-13T05:54:02;3.20;99.90
24384;DHT22;12504;52.870;8.798;2022-11-13T05:56:47;3.20;99.90
24384;DHT22;12504;52.870;8.798;2022-11-13T05:59:31;3.00;99.90
24384;DHT22;12504;52.870;8.798;2022-11-13T06:02:16;2.90;99.90
24384;DHT22;12504;52.870;8.798;2022-11-13T06:05:00;2.70;99.90
24384;DHT22;12504;52.870;8.798;2022-11-13T06:07:44;2.70;99.90
24384;DHT22;12504;52.870;8.798;2022-11-13T06:10:31;2.70;99.90
24384;DHT22;12504;52.870;8.798;2022-11-13T06:13:16;2.70;99.90
24384;DHT22;12504;52.870;8.798;2022-11-13T06:16:01;2.70;99.90
24384;DHT22;12504;52.870;8.798;2022-11-13T06:18:46;2.80;99.90
24384;DHT22;12504;52.870;8.798;2022-11-13T06:21:31;2.90;99.90
24384;DHT22;12504;52.870;8.798;2022-11-13T06:24:16;3.00;99.90
24384;DHT22;12504;52.870;8.798;2022-11-13T06:27:00;2.90;99.90
24384;DHT22;12504;52.870;8.798;2022-11-13T06:29:44;2.80;99.90
24384;DHT22;12504;52.870;8.798;2022-11-13T06:32:30;2.70;99.90
24384;DHT22;12504;52.870;8.798;2022-11-13T06:35:14;2.60;99.90
24384;DHT22;12504;52.870;8.798;2022-11-13T06:37:58;2.60;99.90
24384;DHT22;12504;52.870;8.798;2022-11-13T06:40:42;2.60;99.90
24384;DHT22;12504;52.870;8.798;2022-11-13T06:43:27;2.60;99.90
24384;DHT22;12504;52.870;8.798;2022-11-13T06:46:12;2.60;99.90
24384;DHT22;12504;52.870;8.798;2022-11-13T06:48:57;2.60;99.90
24384;DHT22;12504;52.870;8.798;2022-11-13T06:51:41;2.50;99.90
24384;DHT22;12504;52.870;8.798;2022-11-13T06:54:26;2.60;99.90
24384;DHT22;12504;52.870;8.798;2022-11-13T06:57:10;2.60;99.90
24384;DHT22;12504;52.870;8.798;2022-11-13T06:59:54;2.60;99.90
24384;DHT22;12504;52.870;8.798;2022-11-13T07:02:38;2.70;99.90
24384;DHT22;12504;52.870;8.798;2022-11-13T07:05:23;2.70;99.90
24384;DHT22;12504;52.870;8.798;2022-11-13T07:08:07;2.80;99.90
24384;DHT22;12504;52.870;8.798;2022-11-13T07:10:52;2.70;99.90
24384;DHT22;12504;52.870;8.798;2022-11-13T07:13:38;2.70;99.90
24384;DHT22;12504;52.870;8.798;2022-11-13T07:16:22;2.70;99.90
24384;DHT22;12504;52.870;8.798;2022-11-13T07:19:06;2.60;99.90
24384;DHT22;12504;52.870;8.798;2022-11-13T07:21:50;2.60;99.90
24384;DHT22;12504;52.870;8.798;2022-11-13T07:24:34;2.60;99.90
24384;DHT22;12504;52.870;8.798;2022-11-13T07:27:19;2.60;99.90
24384;DHT22;12504;52.870;8.798;2022-11-13T07:30:03;2.70;99.90
24384;DHT22;12504;52.870;8.798;2022-11-13T07:32:48;2.80;99.90
24384;DHT22;12504;52.870;8.798;2022-11-13T07:35:32;2.80;99.90
24384;DHT22;12504;52.870;8.798;2022-11-13T07:38:17;2.80;99.90
24384;DHT22;12504;52.870;8.798;2022-11-13T07:41:01;2.80;99.90
24384;DHT22;12504;52.870;8.798;2022-11-13T07:43:46;2.80;99.90
24384;DHT22;12504;52.870;8.798;2022-11-13T07:46:30;2.90;99.90
24384;DHT22;12504;52.870;8.798;2022-11-13T07:49:14;2.90;99.90
24384;DHT22;12504;52.870;8.798;2022-11-13T07:51:59;3.10;99.90
24384;DHT22;12504;52.870;8.798;2022-11-13T07:54:43;3.20;99.90
24384;DHT22;12504;52.870;8.798;2022-11-13T07:57:27;3.30;99.90
24384;DHT22;12504;52.870;8.798;2022-11-13T08:00:11;3.50;99.90
24384;DHT22;12504;52.870;8.798;2022-11-13T08:02:56;3.60;99.90
24384;DHT22;12504;52.870;8.798;2022-11-13T08:05:41;3.80;99.90
24384;DHT22;12504;52.870;8.798;2022-11-13T08:08:25;3.80;99.90
24384;DHT22;12504;52.870;8.798;2022-11-13T08:11:09;3.90;99.90
24384;DHT22;12504;52.870;8.798;2022-11-13T08:13:53;3.90;99.90
24384;DHT22;12504;52.870;8.798;2022-11-13T08:16:38;4.00;99.90
24384;DHT22;12504;52.870;8.798;2022-11-13T08:19:22;4.00;99.90
24384;DHT22;12504;52.870;8.798;2022-11-13T08:22:06;4.10;99.90
24384;DHT22;12504;52.870;8.798;2022-11-13T08:24:51;4.10;99.90
24384;DHT22;12504;52.870;8.798;2022-11-13T08:27:38;4.10;99.90
24384;DHT22;12504;52.870;8.798;2022-11-13T08:30:23;4.30;99.90
24384;DHT22;12504;52.870;8.798;2022-11-13T08:33:08;4.40;99.90
24384;DHT22;12504;52.870;8.798;2022-11-13T08:35:57;4.40;99.90
24384;DHT22;12504;52.870;8.798;2022-11-13T08:38:46;4.50;99.90
24384;DHT22;12504;52.870;8.798;2022-11-13T08:41:30;4.70;99.90
24384;DHT22;12504;52.870;8.798;2022-11-13T08:44:15;4.70;99.90
24384;DHT22;12504;52.870;8.798;2022-11-13T08:46:59;4.80;99.90
24384;DHT22;12504;52.870;8.798;2022-11-13T08:49:43;4.90;99.90
24384;DHT22;12504;52.870;8.798;2022-11-13T08:52:27;5.10;99.90
24384;DHT22;12504;52.870;8.798;2022-11-13T08:55:12;5.10;99.90
24384;DHT22;12504;52.870;8.798;2022-11-13T08:57:59;5.20;99.90
24384;DHT22;12504;52.870;8.798;2022-11-13T09:00:44;5.30;99.90
24384;DHT22;12504;52.870;8.798;2022-11-13T09:03:29;5.30;99.90
24384;DHT22;12504;52.870;8.798;2022-11-13T09:06:13;5.40;99.90
24384;DHT22;12504;52.870;8.798;2022-11-13T09:08:57;5.40;99.90
24384;DHT22;12504;52.870;8.798;2022-11-13T09:11:42;5.40;99.90
24384;DHT22;12504;52.870;8.798;2022-11-13T09:14:26;5.40;99.90
24384;DHT22;12504;52.870;8.798;2022-11-13T09:17:11;5.50;99.90
24384;DHT22;12504;52.870;8.798;2022-11-13T09:19:55;5.50;99.90
24384;DHT22;12504;52.870;8.798;2022-11-13T09:22:40;5.50;99.90
24384;DHT22;12504;52.870;8.798;2022-11-13T09:25:24;5.60;99.90
24384;DHT22;12504;52.870;8.798;2022-11-13T09:28:09;5.60;99.90
24384;DHT22;12504;52.870;8.798;2022-11-13T09:30:53;5.70;99.90
24384;DHT22;12504;52.870;8.798;2022-11-13T09:33:37;5.70;99.90
24384;DHT22;12504;52.870;8.798;2022-11-13T09:36:21;5.70;99.90
24384;DHT22;12504;52.870;8.798;2022-11-13T09:39:06;5.80;99.90
24384;DHT22;12504;52.870;8.798;2022-11-13T09:41:52;5.80;99.90
24384;DHT22;12504;52.870;8.798;2022-11-13T09:44:59;5.90;99.90
24384;DHT22;12504;52.870;8.798;2022-11-13T09:47:42;5.90;99.90
24384;DHT22;12504;52.870;8.798;2022-11-13T09:50:28;6.00;99.90
24384;DHT22;12504;52.870;8.798;2022-11-13T09:53:14;6.00;99.90
24384;DHT22;12504;52.870;8.798;2022-11-13T09:56:05;6.10;99.90
24384;DHT22;12504;52.870;8.798;2022-11-13T09:58:55;6.20;99.90
24384;DHT22;12504;52.870;8.798;2022-11-13T10:01:57;6.30;99.90
24384;DHT22;12504;52.870;8.798;2022-11-13T10:07:38;6.50;99.90
24384;DHT22;12504;52.870;8.798;2022-11-13T10:13:16;6.70;99.90
24384;DHT22;12504;52.870;8.798;2022-11-13T10:16:13;6.80;99.90
24384;DHT22;12504;52.870;8.798;2022-11-13T10:19:47;6.90;99.90
24384;DHT22;12504;52.870;8.798;2022-11-13T10:24:47;7.10;99.90
24384;DHT22;12504;52.870;8.798;2022-11-13T10:27:33;7.20;99.90
24384;DHT22;12504;52.870;8.798;2022-11-13T10:30:18;7.30;99.90
24384;DHT22;12504;52.870;8.798;2022-11-13T10:33:06;7.40;99.90
24384;DHT22;12504;52.870;8.798;2022-11-13T10:35:58;7.50;99.90
24384;DHT22;12504;52.870;8.798;2022-11-13T10:38:58;7.50;99.90
24384;DHT22;12504;52.870;8.798;2022-11-13T10:41:51;7.60;99.90
24384;DHT22;12504;52.870;8.798;2022-11-13T10:44:35;7.70;99.90
24384;DHT22;12504;52.870;8.798;2022-11-13T10:47:23;7.70;99.90
24384;DHT22;12504;52.870;8.798;2022-11-13T10:50:09;7.70;99.90
24384;DHT22;12504;52.870;8.798;2022-11-13T10:52:54;7.80;99.90
24384;DHT22;12504;52.870;8.798;2022-11-13T10:55:39;7.90;99.90
24384;DHT22;12504;52.870;8.798;2022-11-13T10:58:24;8.00;99.90
24384;DHT22;12504;52.870;8.798;2022-11-13T11:01:29;8.00;99.90
24384;DHT22;12504;52.870;8.798;2022-11-13T11:04:18;8.20;99.90
24384;DHT22;12504;52.870;8.798;2022-11-13T11:07:19;8.30;99.90
24384;DHT22;12504;52.870;8.798;2022-11-13T11:10:05;8.40;99.90
24384;DHT22;12504;52.870;8.798;2022-11-13T11:12:51;8.50;99.90
24384;DHT22;12504;52.870;8.798;2022-11-13T11:18:29;9.70;99.90
24384;DHT22;12504;52.870;8.798;2022-11-13T11:21:18;11.30;99.90
24384;DHT22;12504;52.870;8.798;2022-11-13T11:24:08;12.80;99.90
24384;DHT22;12504;52.870;8.798;2022-11-13T11:32:33;15.40;41.30
24384;DHT22;12504;52.870;8.798;2022-11-13T11:35:21;15.70;2.20
24384;DHT22;12504;52.870;8.798;2022-11-13T11:38:15;15.80;1.00
24384;DHT22;12504;52.870;8.798;2022-11-13T11:41:13;16.20;1.00
24384;DHT22;12504;52.870;8.798;2022-11-13T11:44:00;16.60;1.00
24384;DHT22;12504;52.870;8.798;2022-11-13T11:46:46;16.60;1.00
24384;DHT22;12504;52.870;8.798;2022-11-13T11:49:33;16.70;1.00
24384;DHT22;12504;52.870;8.798;2022-11-13T11:55:38;16.60;1.00
24384;DHT22;12504;52.870;8.798;2022-11-13T12:04:27;15.50;1.00
24384;DHT22;12504;52.870;8.798;2022-11-13T12:10:06;14.30;34.70
24384;DHT22;12504;52.870;8.798;2022-11-13T12:15:58;12.90;66.30
24384;DHT22;12504;52.870;8.798;2022-11-13T12:25:00;12.00;94.10
24384;DHT22;12504;52.870;8.798;2022-11-13T12:27:53;11.90;98.50
24384;DHT22;12504;52.870;8.798;2022-11-13T12:36:30;11.50;99.90
24384;DHT22;12504;52.870;8.798;2022-11-13T12:39:33;11.50;99.90
24384;DHT22;12504;52.870;8.798;2022-11-13T12:47:49;11.20;99.90
24384;DHT22;12504;52.870;8.798;2022-11-13T12:50:35;11.10;99.90
24384;DHT22;12504;52.870;8.798;2022-11-13T12:53:23;11.00;99.90
24384;DHT22;12504;52.870;8.798;2022-11-13T12:56:13;11.00;99.90
24384;DHT22;12504;52.870;8.798;2022-11-13T13:05:03;10.90;99.90
24384;DHT22;12504;52.870;8.798;2022-11-13T13:10:56;10.90;99.90
24384;DHT22;12504;52.870;8.798;2022-11-13T13:16:47;11.00;99.90
24384;DHT22;12504;52.870;8.798;2022-11-13T13:19:34;10.90;99.90
24384;DHT22;12504;52.870;8.798;2022-11-13T13:22:29;10.90;99.90
24384;DHT22;12504;52.870;8.798;2022-11-13T13:25:25;10.80;99.90
24384;DHT22;12504;52.870;8.798;2022-11-13T13:28:15;10.80;99.90
24384;DHT22;12504;52.870;8.798;2022-11-13T13:36:45;10.50;99.90
24384;DHT22;12504;52.870;8.798;2022-11-13T13:48:12;10.60;99.90
24384;DHT22;12504;52.870;8.798;2022-11-13T13:50:59;10.60;99.90
24384;DHT22;12504;52.870;8.798;2022-11-13T13:53:44;10.60;99.90
24384;DHT22;12504;52.870;8.798;2022-11-13T13:56:28;10.50;99.90
24384;DHT22;12504;52.870;8.798;2022-11-13T13:59:15;10.50;99.90
24384;DHT22;12504;52.870;8.798;2022-11-13T14:02:01;10.50;99.90
24384;DHT22;12504;52.870;8.798;2022-11-13T14:04:47;10.50;99.90
24384;DHT22;12504;52.870;8.798;2022-11-13T14:07:31;10.40;99.90
24384;DHT22;12504;52.870;8.798;2022-11-13T14:10:17;10.40;99.90
24384;DHT22;12504;52.870;8.798;2022-11-13T14:13:03;10.40;99.90
24384;DHT22;12504;52.870;8.798;2022-11-13T14:15:47;10.40;99.90
24384;DHT22;12504;52.870;8.798;2022-11-13T14:18:32;10.30;99.90
24384;DHT22;12504;52.870;8.798;2022-11-13T14:21:18;10.30;99.90
24384;DHT22;12504;52.870;8.798;2022-11-13T14:24:04;10.20;99.90
24384;DHT22;12504;52.870;8.798;2022-11-13T14:26:48;10.10;99.90
24384;DHT22;12504;52.870;8.798;2022-11-13T14:29:38;9.90;99.90
24384;DHT22;12504;52.870;8.798;2022-11-13T14:32:32;9.80;99.90
24384;DHT22;12504;52.870;8.798;2022-11-13T14:38:02;9.40;99.90
24384;DHT22;12504;52.870;8.798;2022-11-13T14:40:47;9.20;99.90
24384;DHT22;12504;52.870;8.798;2022-11-13T14:43:32;9.20;99.90
24384;DHT22;12504;52.870;8.798;2022-11-13T14:46:25;9.00;99.90
24384;DHT22;12504;52.870;8.798;2022-11-13T14:49:11;8.90;99.90
24384;DHT22;12504;52.870;8.798;2022-11-13T14:51:56;8.80;99.90
24384;DHT22;12504;52.870;8.798;2022-11-13T14:54:40;8.70;99.90
24384;DHT22;12504;52.870;8.798;2022-11-13T14:57:25;8.60;99.90
24384;DHT22;12504;52.870;8.798;2022-11-13T15:00:16;8.50;99.90
24384;DHT22;12504;52.870;8.798;2022-11-13T15:03:02;8.30;99.90
24384;DHT22;12504;52.870;8.798;2022-11-13T15:05:46;8.20;99.90
24384;DHT22;12504;52.870;8.798;2022-11-13T15:08:30;8.10;99.90
24384;DHT22;12504;52.870;8.798;2022-11-13T15:11:18;7.90;99.90
24384;DHT22;12504;52.870;8.798;2022-11-13T15:14:02;7.80;99.90
24384;DHT22;12504;52.870;8.798;2022-11-13T15:16:47;7.70;99.90
24384;DHT22;12504;52.870;8.798;2022-11-13T15:19:35;7.60;99.90
24384;DHT22;12504;52.870;8.798;2022-11-13T15:22:20;7.50;99.90
24384;DHT22;12504;52.870;8.798;2022-11-13T15:25:13;7.30;99.90
24384;DHT22;12504;52.870;8.798;2022-11-13T15:27:57;7.20;99.90
24384;DHT22;12504;52.870;8.798;2022-11-13T15:30:42;7.10;99.90
24384;DHT22;12504;52.870;8.798;2022-11-13T15:33:26;7.00;99.90
24384;DHT22;12504;52.870;8.798;2022-11-13T15:36:10;7.00;99.90
24384;DHT22;12504;52.870;8.798;2022-11-13T15:38:55;6.90;99.90
24384;DHT22;12504;52.870;8.798;2022-11-13T15:41:39;6.90;99.90
24384;DHT22;12504;52.870;8.798;2022-11-13T15:44:23;6.90;99.90
24384;DHT22;12504;52.870;8.798;2022-11-13T15:50:14;6.80;99.90
24384;DHT22;12504;52.870;8.798;2022-11-13T15:52:59;6.80;99.90
24384;DHT22;12504;52.870;8.798;2022-11-13T15:55:47;6.70;99.90
24384;DHT22;12504;52.870;8.798;2022-11-13T15:58:32;6.70;99.90
24384;DHT22;12504;52.870;8.798;2022-11-13T16:01:16;6.70;99.90
24384;DHT22;12504;52.870;8.798;2022-11-13T16:04:00;6.60;99.90
24384;DHT22;12504;52.870;8.798;2022-11-13T16:06:45;6.50;99.90
24384;DHT22;12504;52.870;8.798;2022-11-13T16:09:29;6.50;99.90
24384;DHT22;12504;52.870;8.798;2022-11-13T16:12:14;6.40;99.90
24384;DHT22;12504;52.870;8.798;2022-11-13T16:14:58;6.40;99.90
24384;DHT22;12504;52.870;8.798;2022-11-13T16:17:46;6.40;99.90
24384;DHT22;12504;52.870;8.798;2022-11-13T16:20:31;6.40;99.90
24384;DHT22;12504;52.870;8.798;2022-11-13T16:23:16;6.30;99.90
24384;DHT22;12504;52.870;8.798;2022-11-13T16:26:00;6.40;99.90
24384;DHT22;12504;52.870;8.798;2022-11-13T16:28:50;6.40;99.90
24384;DHT22;12504;52.870;8.798;2022-11-13T16:31:35;6.40;99.90
24384;DHT22;12504;52.870;8.798;2022-11-13T16:34:19;6.40;99.90
24384;DHT22;12504;52.870;8.798;2022-11-13T16:37:04;6.40;99.90
24384;DHT22;12504;52.870;8.798;2022-11-13T16:39:50;6.40;99.90
24384;DHT22;12504;52.870;8.798;2022-11-13T16:42:34;6.50;99.90
24384;DHT22;12504;52.870;8.798;2022-11-13T16:45:21;6.50;99.90
24384;DHT22;12504;52.870;8.798;2022-11-13T16:48:13;6.50;99.90
24384;DHT22;12504;52.870;8.798;2022-11-13T16:50:57;6.50;99.90
24384;DHT22;12504;52.870;8.798;2022-11-13T16:53:42;6.50;99.90
24384;DHT22;12504;52.870;8.798;2022-11-13T16:56:27;6.60;99.90
24384;DHT22;12504;52.870;8.798;2022-11-13T16:59:12;6.60;99.90
24384;DHT22;12504;52.870;8.798;2022-11-13T17:01:56;6.60;99.90
24384;DHT22;12504;52.870;8.798;2022-11-13T17:04:42;6.60;99.90
24384;DHT22;12504;52.870;8.798;2022-11-13T17:07:26;6.60;99.90
24384;DHT22;12504;52.870;8.798;2022-11-13T17:10:14;6.60;99.90
24384;DHT22;12504;52.870;8.798;2022-11-13T17:12:59;6.60;99.90
24384;DHT22;12504;52.870;8.798;2022-11-13T17:15:43;6.60;99.90
24384;DHT22;12504;52.870;8.798;2022-11-13T17:18:28;6.60;99.90
24384;DHT22;12504;52.870;8.798;2022-11-13T17:21:12;6.60;99.90
24384;DHT22;12504;52.870;8.798;2022-11-13T17:23:57;6.70;99.90
24384;DHT22;12504;52.870;8.798;2022-11-13T17:26:42;6.70;99.90
24384;DHT22;12504;52.870;8.798;2022-11-13T17:29:26;6.70;99.90
24384;DHT22;12504;52.870;8.798;2022-11-13T17:32:11;6.70;99.90
24384;DHT22;12504;52.870;8.798;2022-11-13T17:34:55;6.80;99.90
24384;DHT22;12504;52.870;8.798;2022-11-13T17:37:39;6.80;99.90
24384;DHT22;12504;52.870;8.798;2022-11-13T17:40:24;6.80;99.90
24384;DHT22;12504;52.870;8.798;2022-11-13T17:43:08;6.90;99.90
24384;DHT22;12504;52.870;8.798;2022-11-13T17:45:53;6.90;99.90
24384;DHT22;12504;52.870;8.798;2022-11-13T17:48:37;6.90;99.90
24384;DHT22;12504;52.870;8.798;2022-11-13T17:51:22;7.00;99.90
24384;DHT22;12504;52.870;8.798;2022-11-13T17:54:06;7.00;99.90
24384;DHT22;12504;52.870;8.798;2022-11-13T17:56:50;7.00;99.90
24384;DHT22;12504;52.870;8.798;2022-11-13T17:59:34;7.00;99.90
24384;DHT22;12504;52.870;8.798;2022-11-13T18:02:18;7.00;99.90
24384;DHT22;12504;52.870;8.798;2022-11-13T18:05:03;7.00;99.90
24384;DHT22;12504;52.870;8.798;2022-11-13T18:07:47;7.00;99.90
24384;DHT22;12504;52.870;8.798;2022-11-13T18:10:32;7.00;99.90
24384;DHT22;12504;52.870;8.798;2022-11-13T18:13:16;7.00;99.90
24384;DHT22;12504;52.870;8.798;2022-11-13T18:16:04;7.10;99.90
24384;DHT22;12504;52.870;8.798;2022-11-13T18:18:49;7.10;99.90
24384;DHT22;12504;52.870;8.798;2022-11-13T18:21:36;7.10;99.90
24384;DHT22;12504;52.870;8.798;2022-11-13T18:24:20;7.10;99.90
24384;DHT22;12504;52.870;8.798;2022-11-13T18:27:05;7.10;99.90
24384;DHT22;12504;52.870;8.798;2022-11-13T18:29:49;7.10;99.90
24384;DHT22;12504;52.870;8.798;2022-11-13T18:32:33;7.10;99.90
24384;DHT22;12504;52.870;8.798;2022-11-13T18:35:18;7.20;99.90
24384;DHT22;12504;52.870;8.798;2022-11-13T18:38:02;7.20;99.90
24384;DHT22;12504;52.870;8.798;2022-11-13T18:40:46;7.20;99.90
24384;DHT22;12504;52.870;8.798;2022-11-13T18:43:31;7.20;99.90
24384;DHT22;12504;52.870;8.798;2022-11-13T18:46:16;7.20;99.90
24384;DHT22;12504;52.870;8.798;2022-11-13T18:49:01;7.20;99.90
24384;DHT22;12504;52.870;8.798;2022-11-13T18:51:46;7.20;99.90
24384;DHT22;12504;52.870;8.798;2022-11-13T18:54:30;7.20;99.90
24384;DHT22;12504;52.870;8.798;2022-11-13T18:57:14;7.20;99.90
24384;DHT22;12504;52.870;8.798;2022-11-13T18:59:59;7.30;99.90
24384;DHT22;12504;52.870;8.798;2022-11-13T19:02:43;7.30;99.90
24384;DHT22;12504;52.870;8.798;2022-11-13T19:05:27;7.30;99.90
24384;DHT22;12504;52.870;8.798;2022-11-13T19:08:12;7.20;99.90